MV Alemania — V2OG7 — position and weather

sailwx.info

Track history (hours):
 
Tides and Currents Weather Stations Pressure Air Temp Water Temp Dewpoint Dewpoint Depression Visibility Wind Speed Wind Dir Waves Ship Positions

MV Alemania

Last reported at 2014-Jul-28 03:13 UTC. Time now 2014-Jul-28 12:24 UTC.
Position N 37°17' E 009°58'.

Length 133 m; draft 8.4 m.

Type: Cargo ship. MMSI: 304010613.

Date/timePositionNaut miles runAvg speedWind from/ knotsBaromVisibWave heightAir tempDewpointWater temp
2014-Jul-28 03:13N 37°17' E 009°58'0 0.1
2014-Jul-28 02:24N 37°17' E 009°58'31 1.8
2014-Jul-27 09:09N 37°37' E 010°28'65 9.5
2014-Jul-27 02:16N 37°13' E 011°44'66 9.8
2014-Jul-26 19:30N 36°44' E 012°59'910.0
2014-Jul-26 18:33N 36°39' E 013°09'1010.1
2014-Jul-26 17:33N 36°35' E 013°21'1110.9
2014-Jul-26 16:33N 36°31' E 013°33'1111.0
2014-Jul-26 15:33N 36°26' E 013°46'1111.2
2014-Jul-26 14:33N 36°22' E 013°59'1110.9
2014-Jul-26 13:33N 36°20' E 014°12'1111.1
2014-Jul-26 12:33N 36°20' E 014°26'1111.2
2014-Jul-26 11:33N 36°20' E 014°40'1110.9
2014-Jul-26 10:33N 36°20' E 014°53'2211.2
2014-Jul-26 08:33N 36°20' E 015°21'39210.5
2014-Jul-24 19:10N 36°39' E 023°27'1211.4
2014-Jul-24 18:08N 36°50' E 023°33'711.4
2014-Jul-24 17:33N 36°57' E 023°36'2210.7
2014-Jul-24 15:29N 37°19' E 023°40'1010.4
2014-Jul-24 14:33N 37°28' E 023°41'1110.9
2014-Jul-24 13:33N 37°39' E 023°42'1111.1
2014-Jul-24 12:33N 37°49' E 023°37'8 8.2
2014-Jul-24 11:33N 37°57' E 023°36'0 0.0
2014-Jul-24 10:14N 37°57' E 023°36'0 0.0
2014-Jul-24 09:32N 37°57' E 023°36'0 0.0
2014-Jul-24 08:32N 37°57' E 023°36'0 0.0
2014-Jul-24 07:28N 37°57' E 023°36'0 0.0
2014-Jul-24 06:31N 37°57' E 023°36'0 0.0
2014-Jul-24 05:33N 37°57' E 023°36'0 0.0
2014-Jul-24 04:33N 37°57' E 023°36'0 0.0
2014-Jul-24 03:32N 37°57' E 023°36'0 0.0
2014-Jul-24 02:29N 37°57' E 023°36'0 0.0
2014-Jul-24 01:31N 37°57' E 023°36'0 0.0
2014-Jul-24 00:31N 37°57' E 023°36'0 0.0
2014-Jul-23 23:31N 37°57' E 023°36'0 0.0
2014-Jul-23 22:33N 37°57' E 023°36'0 0.0
2014-Jul-23 21:33N 37°57' E 023°36'0 0.0
2014-Jul-23 20:32N 37°57' E 023°36'0 0.0
2014-Jul-23 19:32N 37°57' E 023°36'0 0.0
2014-Jul-23 18:31N 37°57' E 023°36'0 0.0
2014-Jul-23 17:31N 37°57' E 023°36'0 0.0
2014-Jul-23 16:31N 37°57' E 023°36'0 0.0
2014-Jul-23 15:33N 37°57' E 023°36'0 0.0
2014-Jul-23 14:33N 37°57' E 023°36'0 0.0
2014-Jul-23 13:32N 37°57' E 023°36'0 0.0
2014-Jul-23 12:32N 37°57' E 023°36'0 0.0
2014-Jul-23 11:31N 37°57' E 023°36'0 0.0
2014-Jul-23 09:33N 37°57' E 023°36'0 0.0
2014-Jul-23 08:33N 37°57' E 023°36'3 3.1
2014-Jul-23 07:33N 37°54' E 023°35'3 2.6
2014-Jul-23 06:31N 37°52' E 023°33'0 0.1
2014-Jul-23 05:30N 37°52' E 023°33'0 0.1
2014-Jul-23 04:33N 37°52' E 023°33'0 0.0
2014-Jul-23 03:23N 37°52' E 023°33'0 0.1
2014-Jul-23 02:32N 37°52' E 023°33'0 0.1
2014-Jul-23 01:32N 37°52' E 023°33'0 0.0
2014-Jul-23 00:31N 37°52' E 023°33'0 0.0
2014-Jul-22 23:31N 37°52' E 023°33'0 0.1
2014-Jul-22 22:33N 37°52' E 023°33'0 0.1
2014-Jul-22 21:33N 37°52' E 023°33'0 0.0
2014-Jul-22 20:32N 37°52' E 023°33'0 0.0
2014-Jul-22 19:32N 37°52' E 023°33'0 0.0
2014-Jul-22 18:32N 37°52' E 023°33'0 0.0
2014-Jul-22 17:31N 37°52' E 023°33'0 0.0
2014-Jul-22 16:31N 37°52' E 023°33'0 0.0
2014-Jul-22 15:33N 37°52' E 023°33'0 0.0
2014-Jul-22 14:33N 37°52' E 023°33'0 0.0
2014-Jul-22 13:32N 37°52' E 023°33'0 0.0
2014-Jul-22 12:32N 37°52' E 023°33'0 0.0
2014-Jul-22 11:32N 37°52' E 023°33'0 0.0
2014-Jul-22 10:31N 37°52' E 023°33'0 0.0
2014-Jul-22 09:31N 37°52' E 023°33'0 0.0
2014-Jul-22 08:33N 37°52' E 023°33'0 0.0
2014-Jul-22 07:33N 37°52' E 023°33'0 0.1
2014-Jul-22 06:32N 37°52' E 023°33'0 0.1
2014-Jul-22 05:32N 37°52' E 023°33'0 0.0
2014-Jul-22 04:32N 37°52' E 023°33'0 0.0
2014-Jul-22 03:31N 37°52' E 023°33'0 0.0
2014-Jul-22 02:31N 37°52' E 023°33'0 0.0
2014-Jul-22 01:33N 37°52' E 023°33'0 0.0
2014-Jul-22 00:33N 37°52' E 023°33'0 0.0
2014-Jul-21 23:32N 37°52' E 023°33'0 0.0
2014-Jul-21 22:32N 37°52' E 023°33'0 0.1
2014-Jul-21 21:31N 37°52' E 023°33'0 0.0
2014-Jul-21 20:31N 37°52' E 023°33'0 0.0
2014-Jul-21 20:16N 37°52' E 023°33'0 0.0
2014-Jul-21 19:31N 37°52' E 023°33'0 0.0
2014-Jul-21 18:33N 37°52' E 023°33'0 0.0
2014-Jul-21 17:33N 37°52' E 023°33'0 0.0
2014-Jul-21 16:32N 37°52' E 023°33'0 0.0
2014-Jul-21 15:32N 37°52' E 023°33'0 0.0
2014-Jul-21 14:31N 37°52' E 023°33'0 0.0
2014-Jul-21 13:31N 37°52' E 023°33'0 0.0
2014-Jul-21 12:31N 37°52' E 023°33'0 0.1
2014-Jul-21 11:33N 37°52' E 023°33'0 0.0
2014-Jul-21 10:30N 37°52' E 023°33'0 0.0
2014-Jul-21 08:23N 37°52' E 023°33'0 0.0
2014-Jul-21 07:31N 37°52' E 023°33'0 0.1
2014-Jul-21 06:31N 37°52' E 023°33'0 0.1
2014-Jul-21 05:34N 37°52' E 023°33'0 0.0
2014-Jul-21 03:30N 37°52' E 023°33'2 2.0
2014-Jul-21 02:33N 37°52' E 023°35'8 7.7
2014-Jul-21 01:32N 37°46' E 023°42'1010.6
2014-Jul-21 00:33N 37°37' E 023°48'3311.0
2014-Jul-20 21:32N 37°04' E 023°40'41910.7
2014-Jul-19 06:15N 36°20' E 015°00'911.7
2014-Jul-19 05:31N 36°20' E 014°49'1111.7
2014-Jul-19 04:34N 36°20' E 014°35'1211.5
2014-Jul-19 03:34N 36°20' E 014°21'1111.3
2014-Jul-19 02:34N 36°19' E 014°07'1111.3
2014-Jul-19 01:34N 36°22' E 013°53'1111.4
2014-Jul-19 00:33N 36°27' E 013°40'1111.5
2014-Jul-18 23:34N 36°31' E 013°27'1211.6
2014-Jul-18 22:33N 36°35' E 013°14'1212.0
2014-Jul-18 21:34N 36°40' E 012°60'1211.8
2014-Jul-18 20:34N 36°44' E 012°46'4611.5
2014-Jul-18 16:33N 37°03' E 011°54'1111.5
2014-Jul-18 15:33N 37°08' E 011°41'2711.3
2014-Jul-18 13:10N 37°21' E 011°12'811.4
2014-Jul-18 12:28N 37°25' E 011°03'1111.0
2014-Jul-18 11:26N 37°27' E 010°49'  
Track history (hours):
 
Tides and Currents Weather Stations Pressure Air Temp Water Temp Dewpoint Dewpoint Depression Visibility Wind Speed Wind Dir Waves Ship Positions

MV Alemania

Last reported at 2014-Jul-28 03:13 UTC. Time now 2014-Jul-28 12:24 UTC.
Position N 37°17' E 009°58'.

Length 133 m; draft 8.4 m.

Type: Cargo ship. MMSI: 304010613.

Date/timePositionNaut miles runAvg speedWind from/ knotsBaromVisibWave heightAir tempDewpointWater temp
2014-Jul-28 03:13N 37°17' E 009°58'0 0.1
2014-Jul-28 02:24N 37°17' E 009°58'31 1.8
2014-Jul-27 09:09N 37°37' E 010°28'65 9.5
2014-Jul-27 02:16N 37°13' E 011°44'66 9.8
2014-Jul-26 19:30N 36°44' E 012°59'910.0
2014-Jul-26 18:33N 36°39' E 013°09'1010.1
2014-Jul-26 17:33N 36°35' E 013°21'1110.9
2014-Jul-26 16:33N 36°31' E 013°33'1111.0
2014-Jul-26 15:33N 36°26' E 013°46'1111.2
2014-Jul-26 14:33N 36°22' E 013°59'1110.9
2014-Jul-26 13:33N 36°20' E 014°12'1111.1
2014-Jul-26 12:33N 36°20' E 014°26'1111.2
2014-Jul-26 11:33N 36°20' E 014°40'1110.9
2014-Jul-26 10:33N 36°20' E 014°53'2211.2
2014-Jul-26 08:33N 36°20' E 015°21'39210.5
2014-Jul-24 19:10N 36°39' E 023°27'1211.4
2014-Jul-24 18:08N 36°50' E 023°33'711.4
2014-Jul-24 17:33N 36°57' E 023°36'2210.7
2014-Jul-24 15:29N 37°19' E 023°40'1010.4
2014-Jul-24 14:33N 37°28' E 023°41'1110.9
2014-Jul-24 13:33N 37°39' E 023°42'1111.1
2014-Jul-24 12:33N 37°49' E 023°37'8 8.2
2014-Jul-24 11:33N 37°57' E 023°36'0 0.0
2014-Jul-24 10:14N 37°57' E 023°36'0 0.0
2014-Jul-24 09:32N 37°57' E 023°36'0 0.0
2014-Jul-24 08:32N 37°57' E 023°36'0 0.0
2014-Jul-24 07:28N 37°57' E 023°36'0 0.0
2014-Jul-24 06:31N 37°57' E 023°36'0 0.0
2014-Jul-24 05:33N 37°57' E 023°36'0 0.0
2014-Jul-24 04:33N 37°57' E 023°36'0 0.0
2014-Jul-24 03:32N 37°57' E 023°36'0 0.0
2014-Jul-24 02:29N 37°57' E 023°36'0 0.0
2014-Jul-24 01:31N 37°57' E 023°36'0 0.0
2014-Jul-24 00:31N 37°57' E 023°36'0 0.0
2014-Jul-23 23:31N 37°57' E 023°36'0 0.0
2014-Jul-23 22:33N 37°57' E 023°36'0 0.0
2014-Jul-23 21:33N 37°57' E 023°36'0 0.0
2014-Jul-23 20:32N 37°57' E 023°36'0 0.0
2014-Jul-23 19:32N 37°57' E 023°36'0 0.0
2014-Jul-23 18:31N 37°57' E 023°36'0 0.0
2014-Jul-23 17:31N 37°57' E 023°36'0 0.0
2014-Jul-23 16:31N 37°57' E 023°36'0 0.0
2014-Jul-23 15:33N 37°57' E 023°36'0 0.0
2014-Jul-23 14:33N 37°57' E 023°36'0 0.0
2014-Jul-23 13:32N 37°57' E 023°36'0 0.0
2014-Jul-23 12:32N 37°57' E 023°36'0 0.0
2014-Jul-23 11:31N 37°57' E 023°36'0 0.0
2014-Jul-23 09:33N 37°57' E 023°36'0 0.0
2014-Jul-23 08:33N 37°57' E 023°36'3 3.1
2014-Jul-23 07:33N 37°54' E 023°35'3 2.6
2014-Jul-23 06:31N 37°52' E 023°33'0 0.1
2014-Jul-23 05:30N 37°52' E 023°33'0 0.1
2014-Jul-23 04:33N 37°52' E 023°33'0 0.0
2014-Jul-23 03:23N 37°52' E 023°33'0 0.1
2014-Jul-23 02:32N 37°52' E 023°33'0 0.1
2014-Jul-23 01:32N 37°52' E 023°33'0 0.0
2014-Jul-23 00:31N 37°52' E 023°33'0 0.0
2014-Jul-22 23:31N 37°52' E 023°33'0 0.1
2014-Jul-22 22:33N 37°52' E 023°33'0 0.1
2014-Jul-22 21:33N 37°52' E 023°33'0 0.0
2014-Jul-22 20:32N 37°52' E 023°33'0 0.0
2014-Jul-22 19:32N 37°52' E 023°33'0 0.0
2014-Jul-22 18:32N 37°52' E 023°33'0 0.0
2014-Jul-22 17:31N 37°52' E 023°33'0 0.0
2014-Jul-22 16:31N 37°52' E 023°33'0 0.0
2014-Jul-22 15:33N 37°52' E 023°33'0 0.0
2014-Jul-22 14:33N 37°52' E 023°33'0 0.0
2014-Jul-22 13:32N 37°52' E 023°33'0 0.0
2014-Jul-22 12:32N 37°52' E 023°33'0 0.0
2014-Jul-22 11:32N 37°52' E 023°33'0 0.0
2014-Jul-22 10:31N 37°52' E 023°33'0 0.0
2014-Jul-22 09:31N 37°52' E 023°33'0 0.0
2014-Jul-22 08:33N 37°52' E 023°33'0 0.0
2014-Jul-22 07:33N 37°52' E 023°33'0 0.1
2014-Jul-22 06:32N 37°52' E 023°33'0 0.1
2014-Jul-22 05:32N 37°52' E 023°33'0 0.0
2014-Jul-22 04:32N 37°52' E 023°33'0 0.0
2014-Jul-22 03:31N 37°52' E 023°33'0 0.0
2014-Jul-22 02:31N 37°52' E 023°33'0 0.0
2014-Jul-22 01:33N 37°52' E 023°33'0 0.0
2014-Jul-22 00:33N 37°52' E 023°33'0 0.0
2014-Jul-21 23:32N 37°52' E 023°33'0 0.0
2014-Jul-21 22:32N 37°52' E 023°33'0 0.1
2014-Jul-21 21:31N 37°52' E 023°33'0 0.0
2014-Jul-21 20:31N 37°52' E 023°33'0 0.0
2014-Jul-21 20:16N 37°52' E 023°33'0 0.0
2014-Jul-21 19:31N 37°52' E 023°33'0 0.0
2014-Jul-21 18:33N 37°52' E 023°33'0 0.0
2014-Jul-21 17:33N 37°52' E 023°33'0 0.0
2014-Jul-21 16:32N 37°52' E 023°33'0 0.0
2014-Jul-21 15:32N 37°52' E 023°33'0 0.0
2014-Jul-21 14:31N 37°52' E 023°33'0 0.0
2014-Jul-21 13:31N 37°52' E 023°33'0 0.0
2014-Jul-21 12:31N 37°52' E 023°33'0 0.1
2014-Jul-21 11:33N 37°52' E 023°33'0 0.0
2014-Jul-21 10:30N 37°52' E 023°33'0 0.0
2014-Jul-21 08:23N 37°52' E 023°33'0 0.0
2014-Jul-21 07:31N 37°52' E 023°33'0 0.1
2014-Jul-21 06:31N 37°52' E 023°33'0 0.1
2014-Jul-21 05:34N 37°52' E 023°33'0 0.0
2014-Jul-21 03:30N 37°52' E 023°33'2 2.0
2014-Jul-21 02:33N 37°52' E 023°35'8 7.7
2014-Jul-21 01:32N 37°46' E 023°42'1010.6
2014-Jul-21 00:33N 37°37' E 023°48'3311.0
2014-Jul-20 21:32N 37°04' E 023°40'41910.7
2014-Jul-19 06:15N 36°20' E 015°00'911.7
2014-Jul-19 05:31N 36°20' E 014°49'1111.7
2014-Jul-19 04:34N 36°20' E 014°35'1211.5
2014-Jul-19 03:34N 36°20' E 014°21'1111.3
2014-Jul-19 02:34N 36°19' E 014°07'1111.3
2014-Jul-19 01:34N 36°22' E 013°53'1111.4
2014-Jul-19 00:33N 36°27' E 013°40'1111.5
2014-Jul-18 23:34N 36°31' E 013°27'1211.6
2014-Jul-18 22:33N 36°35' E 013°14'1212.0
2014-Jul-18 21:34N 36°40' E 012°60'1211.8
2014-Jul-18 20:34N 36°44' E 012°46'4611.5
2014-Jul-18 16:33N 37°03' E 011°54'1111.5
2014-Jul-18 15:33N 37°08' E 011°41'2711.3
2014-Jul-18 13:10N 37°21' E 011°12'811.4
2014-Jul-18 12:28N 37°25' E 011°03'1111.0
2014-Jul-18 11:26N 37°27' E 010°49'  

Dump ship's entire track history